Ragan Village, North Carolina
Current Conditions -  °F | °C
As of 11:54 AM on Tuesday 27 Jan 2015 (Local Time) from KAKH Reporting Station
Overcast Overcast  
Wind Chill: 37°   Ceiling: 8500
Heat Index: 42°   Visibility: 10mi
Dew Point: 16°   Wind: 9mph
Humidity: 35%   Direction: 340°NNW
Pressure: 29.86"   Gusts: 20mph
Location:  35.2631°N, 81.1487°W
Report Text: KAKH 271654Z AUTO 34008G17KT 310V020 10SM OVC085 06/M09 A2986 RMK AO2 SLP117 T00561089
Loading
Personal Weather Stations






























Interactive Weather Map New forecast layout! Learn more

10-Day Weather Forecast

Advertisements
Track Severe Weather on mobile